sensor_id;sensor_type;location;lat;lon;timestamp;temperature;humidity
57566;DHT22;63999;43.882;-0.310;2023-12-20T00:01:01;7.50;88.20
57566;DHT22;63999;43.882;-0.310;2023-12-20T00:03:27;7.50;88.10
57566;DHT22;63999;43.882;-0.310;2023-12-20T00:05:52;7.50;88.20
57566;DHT22;63999;43.882;-0.310;2023-12-20T00:08:18;7.60;88.30
57566;DHT22;63999;43.882;-0.310;2023-12-20T00:10:44;7.60;88.20
57566;DHT22;63999;43.882;-0.310;2023-12-20T00:13:10;7.50;88.30
57566;DHT22;63999;43.882;-0.310;2023-12-20T00:15:36;7.60;88.10
57566;DHT22;63999;43.882;-0.310;2023-12-20T00:18:02;7.50;88.20
57566;DHT22;63999;43.882;-0.310;2023-12-20T00:20:28;7.50;88.20
57566;DHT22;63999;43.882;-0.310;2023-12-20T00:22:56;7.60;88.30
57566;DHT22;63999;43.882;-0.310;2023-12-20T00:25:26;7.60;88.20
57566;DHT22;63999;43.882;-0.310;2023-12-20T00:27:52;7.60;88.20
57566;DHT22;63999;43.882;-0.310;2023-12-20T00:30:18;7.60;88.20
57566;DHT22;63999;43.882;-0.310;2023-12-20T00:32:44;7.60;88.30
57566;DHT22;63999;43.882;-0.310;2023-12-20T00:35:18;7.60;88.20
57566;DHT22;63999;43.882;-0.310;2023-12-20T00:37:44;7.60;88.20
57566;DHT22;63999;43.882;-0.310;2023-12-20T00:40:10;7.60;88.20
57566;DHT22;63999;43.882;-0.310;2023-12-20T00:42:36;7.60;88.20
57566;DHT22;63999;43.882;-0.310;2023-12-20T00:45:02;7.60;88.40
57566;DHT22;63999;43.882;-0.310;2023-12-20T00:47:30;7.60;88.20
57566;DHT22;63999;43.882;-0.310;2023-12-20T00:49:56;7.60;88.30
57566;DHT22;63999;43.882;-0.310;2023-12-20T00:52:21;7.60;88.20
57566;DHT22;63999;43.882;-0.310;2023-12-20T00:54:48;7.60;88.20
57566;DHT22;63999;43.882;-0.310;2023-12-20T00:57:14;7.60;88.20
57566;DHT22;63999;43.882;-0.310;2023-12-20T00:59:39;7.60;88.30
57566;DHT22;63999;43.882;-0.310;2023-12-20T01:02:05;7.60;88.30
57566;DHT22;63999;43.882;-0.310;2023-12-20T01:04:31;7.60;88.40
57566;DHT22;63999;43.882;-0.310;2023-12-20T01:06:57;7.60;88.40
57566;DHT22;63999;43.882;-0.310;2023-12-20T01:09:23;7.60;88.30
57566;DHT22;63999;43.882;-0.310;2023-12-20T01:11:52;7.60;88.30
57566;DHT22;63999;43.882;-0.310;2023-12-20T01:14:18;7.60;88.30
57566;DHT22;63999;43.882;-0.310;2023-12-20T01:16:43;7.60;88.40
57566;DHT22;63999;43.882;-0.310;2023-12-20T01:19:09;7.60;88.30
57566;DHT22;63999;43.882;-0.310;2023-12-20T01:21:35;7.60;88.40
57566;DHT22;63999;43.882;-0.310;2023-12-20T01:24:01;7.60;88.30
57566;DHT22;63999;43.882;-0.310;2023-12-20T01:26:27;7.60;88.30
57566;DHT22;63999;43.882;-0.310;2023-12-20T01:28:53;7.60;88.40
57566;DHT22;63999;43.882;-0.310;2023-12-20T01:31:19;7.60;88.30
57566;DHT22;63999;43.882;-0.310;2023-12-20T01:33:45;7.60;88.30
57566;DHT22;63999;43.882;-0.310;2023-12-20T01:36:10;7.60;88.40
57566;DHT22;63999;43.882;-0.310;2023-12-20T01:38:37;7.60;88.40
57566;DHT22;63999;43.882;-0.310;2023-12-20T01:41:03;7.60;88.50
57566;DHT22;63999;43.882;-0.310;2023-12-20T01:43:29;7.60;88.30
57566;DHT22;63999;43.882;-0.310;2023-12-20T01:45:56;7.60;88.30
57566;DHT22;63999;43.882;-0.310;2023-12-20T01:48:24;7.60;88.40
57566;DHT22;63999;43.882;-0.310;2023-12-20T01:50:50;7.60;88.40
57566;DHT22;63999;43.882;-0.310;2023-12-20T01:53:17;7.60;88.30
57566;DHT22;63999;43.882;-0.310;2023-12-20T01:55:44;7.60;88.30
57566;DHT22;63999;43.882;-0.310;2023-12-20T01:58:10;7.60;88.30
57566;DHT22;63999;43.882;-0.310;2023-12-20T02:00:37;7.60;88.20
57566;DHT22;63999;43.882;-0.310;2023-12-20T02:03:03;7.60;88.30
57566;DHT22;63999;43.882;-0.310;2023-12-20T02:05:30;7.60;88.40
57566;DHT22;63999;43.882;-0.310;2023-12-20T02:07:56;7.60;88.30
57566;DHT22;63999;43.882;-0.310;2023-12-20T02:10:23;7.60;88.40
57566;DHT22;63999;43.882;-0.310;2023-12-20T02:12:48;7.60;88.40
57566;DHT22;63999;43.882;-0.310;2023-12-20T02:15:14;7.60;88.40
57566;DHT22;63999;43.882;-0.310;2023-12-20T02:17:40;7.60;88.30
57566;DHT22;63999;43.882;-0.310;2023-12-20T02:20:06;7.60;88.30
57566;DHT22;63999;43.882;-0.310;2023-12-20T02:22:32;7.60;88.30
57566;DHT22;63999;43.882;-0.310;2023-12-20T02:24:58;7.60;88.30
57566;DHT22;63999;43.882;-0.310;2023-12-20T02:27:24;7.60;88.40
57566;DHT22;63999;43.882;-0.310;2023-12-20T02:29:50;7.60;88.30
57566;DHT22;63999;43.882;-0.310;2023-12-20T02:32:20;7.60;88.30
57566;DHT22;63999;43.882;-0.310;2023-12-20T02:34:49;7.70;88.20
57566;DHT22;63999;43.882;-0.310;2023-12-20T02:37:15;7.60;88.30
57566;DHT22;63999;43.882;-0.310;2023-12-20T02:39:41;7.60;88.30
57566;DHT22;63999;43.882;-0.310;2023-12-20T02:42:07;7.70;88.20
57566;DHT22;63999;43.882;-0.310;2023-12-20T02:44:32;7.70;88.20
57566;DHT22;63999;43.882;-0.310;2023-12-20T02:46:58;7.70;88.30
57566;DHT22;63999;43.882;-0.310;2023-12-20T02:49:24;7.70;88.20
57566;DHT22;63999;43.882;-0.310;2023-12-20T02:51:49;7.70;88.20
57566;DHT22;63999;43.882;-0.310;2023-12-20T02:54:15;7.80;88.20
57566;DHT22;63999;43.882;-0.310;2023-12-20T02:56:41;7.70;88.20
57566;DHT22;63999;43.882;-0.310;2023-12-20T02:59:07;7.70;88.20
57566;DHT22;63999;43.882;-0.310;2023-12-20T03:01:34;7.80;88.20
57566;DHT22;63999;43.882;-0.310;2023-12-20T03:04:01;7.80;88.20
57566;DHT22;63999;43.882;-0.310;2023-12-20T03:06:26;7.80;88.20
57566;DHT22;63999;43.882;-0.310;2023-12-20T03:08:52;7.80;88.20
57566;DHT22;63999;43.882;-0.310;2023-12-20T03:11:18;7.70;88.20
57566;DHT22;63999;43.882;-0.310;2023-12-20T03:13:44;7.80;88.30
57566;DHT22;63999;43.882;-0.310;2023-12-20T03:16:11;7.80;88.20
57566;DHT22;63999;43.882;-0.310;2023-12-20T03:18:36;7.70;88.20
57566;DHT22;63999;43.882;-0.310;2023-12-20T03:21:03;7.80;88.20
57566;DHT22;63999;43.882;-0.310;2023-12-20T03:23:30;7.80;88.30
57566;DHT22;63999;43.882;-0.310;2023-12-20T03:25:58;7.80;88.20
57566;DHT22;63999;43.882;-0.310;2023-12-20T03:28:24;7.80;88.30
57566;DHT22;63999;43.882;-0.310;2023-12-20T03:30:50;7.80;88.20
57566;DHT22;63999;43.882;-0.310;2023-12-20T03:33:15;7.80;88.30
57566;DHT22;63999;43.882;-0.310;2023-12-20T03:35:41;7.80;88.30
57566;DHT22;63999;43.882;-0.310;2023-12-20T03:38:07;7.80;88.20
57566;DHT22;63999;43.882;-0.310;2023-12-20T03:40:33;7.80;88.30
57566;DHT22;63999;43.882;-0.310;2023-12-20T03:42:59;7.80;88.30
57566;DHT22;63999;43.882;-0.310;2023-12-20T03:45:25;7.80;88.30
57566;DHT22;63999;43.882;-0.310;2023-12-20T03:47:50;7.80;88.20
57566;DHT22;63999;43.882;-0.310;2023-12-20T03:50:22;7.80;88.40
57566;DHT22;63999;43.882;-0.310;2023-12-20T03:52:47;7.90;88.80
57566;DHT22;63999;43.882;-0.310;2023-12-20T03:55:13;7.90;88.70
57566;DHT22;63999;43.882;-0.310;2023-12-20T03:57:39;7.90;88.50
57566;DHT22;63999;43.882;-0.310;2023-12-20T04:00:07;7.80;88.40
57566;DHT22;63999;43.882;-0.310;2023-12-20T04:02:39;7.80;88.30
57566;DHT22;63999;43.882;-0.310;2023-12-20T04:05:06;7.80;88.40
57566;DHT22;63999;43.882;-0.310;2023-12-20T04:07:32;7.80;88.40
57566;DHT22;63999;43.882;-0.310;2023-12-20T04:09:57;7.80;88.40
57566;DHT22;63999;43.882;-0.310;2023-12-20T04:12:23;7.80;88.30
57566;DHT22;63999;43.882;-0.310;2023-12-20T04:14:49;7.80;88.30
57566;DHT22;63999;43.882;-0.310;2023-12-20T04:17:16;7.80;88.30
57566;DHT22;63999;43.882;-0.310;2023-12-20T04:19:42;7.80;88.40
57566;DHT22;63999;43.882;-0.310;2023-12-20T04:22:08;7.80;88.30
57566;DHT22;63999;43.882;-0.310;2023-12-20T04:24:34;7.80;88.30
57566;DHT22;63999;43.882;-0.310;2023-12-20T04:26:59;7.80;88.40
57566;DHT22;63999;43.882;-0.310;2023-12-20T04:29:25;7.80;88.30
57566;DHT22;63999;43.882;-0.310;2023-12-20T04:31:51;7.80;88.40
57566;DHT22;63999;43.882;-0.310;2023-12-20T04:34:17;7.80;88.40
57566;DHT22;63999;43.882;-0.310;2023-12-20T04:36:44;7.80;88.40
57566;DHT22;63999;43.882;-0.310;2023-12-20T04:39:11;7.80;88.30
57566;DHT22;63999;43.882;-0.310;2023-12-20T04:41:37;7.90;88.50
57566;DHT22;63999;43.882;-0.310;2023-12-20T04:44:02;7.90;88.40
57566;DHT22;63999;43.882;-0.310;2023-12-20T04:46:28;7.90;88.50
57566;DHT22;63999;43.882;-0.310;2023-12-20T04:48:54;7.90;88.30
57566;DHT22;63999;43.882;-0.310;2023-12-20T04:51:20;7.80;88.40
57566;DHT22;63999;43.882;-0.310;2023-12-20T04:53:46;7.80;88.50
57566;DHT22;63999;43.882;-0.310;2023-12-20T04:56:12;7.80;88.50
57566;DHT22;63999;43.882;-0.310;2023-12-20T04:58:38;7.80;88.50
57566;DHT22;63999;43.882;-0.310;2023-12-20T05:01:05;7.80;88.40
57566;DHT22;63999;43.882;-0.310;2023-12-20T05:03:31;7.80;88.50
57566;DHT22;63999;43.882;-0.310;2023-12-20T05:05:57;7.80;88.50
57566;DHT22;63999;43.882;-0.310;2023-12-20T05:08:23;7.80;88.50
57566;DHT22;63999;43.882;-0.310;2023-12-20T05:10:52;7.80;88.50
57566;DHT22;63999;43.882;-0.310;2023-12-20T05:13:18;7.80;88.50
57566;DHT22;63999;43.882;-0.310;2023-12-20T05:15:44;7.80;88.50
57566;DHT22;63999;43.882;-0.310;2023-12-20T05:18:09;7.90;88.60
57566;DHT22;63999;43.882;-0.310;2023-12-20T05:20:35;7.90;88.50
57566;DHT22;63999;43.882;-0.310;2023-12-20T05:23:01;7.90;88.60
57566;DHT22;63999;43.882;-0.310;2023-12-20T05:25:26;7.90;88.70
57566;DHT22;63999;43.882;-0.310;2023-12-20T05:27:52;8.00;88.70
57566;DHT22;63999;43.882;-0.310;2023-12-20T05:30:18;8.00;88.80
57566;DHT22;63999;43.882;-0.310;2023-12-20T05:32:44;8.00;88.90
57566;DHT22;63999;43.882;-0.310;2023-12-20T05:35:10;8.00;88.80
57566;DHT22;63999;43.882;-0.310;2023-12-20T05:37:35;8.00;89.00
57566;DHT22;63999;43.882;-0.310;2023-12-20T05:40:01;8.00;89.00
57566;DHT22;63999;43.882;-0.310;2023-12-20T05:42:27;8.00;88.90
57566;DHT22;63999;43.882;-0.310;2023-12-20T05:44:53;8.00;89.00
57566;DHT22;63999;43.882;-0.310;2023-12-20T05:47:18;8.00;88.90
57566;DHT22;63999;43.882;-0.310;2023-12-20T05:49:45;8.00;88.90
57566;DHT22;63999;43.882;-0.310;2023-12-20T05:52:10;8.00;88.90
57566;DHT22;63999;43.882;-0.310;2023-12-20T05:54:36;8.00;89.00
57566;DHT22;63999;43.882;-0.310;2023-12-20T05:57:02;8.00;89.00
57566;DHT22;63999;43.882;-0.310;2023-12-20T05:59:28;8.00;89.30
57566;DHT22;63999;43.882;-0.310;2023-12-20T06:01:53;8.00;89.10
57566;DHT22;63999;43.882;-0.310;2023-12-20T06:04:22;8.00;89.10
57566;DHT22;63999;43.882;-0.310;2023-12-20T06:06:48;8.10;89.40
57566;DHT22;63999;43.882;-0.310;2023-12-20T06:09:14;8.10;89.40
57566;DHT22;63999;43.882;-0.310;2023-12-20T06:11:40;8.10;89.40
57566;DHT22;63999;43.882;-0.310;2023-12-20T06:14:06;8.10;89.70
57566;DHT22;63999;43.882;-0.310;2023-12-20T06:16:32;8.10;89.40
57566;DHT22;63999;43.882;-0.310;2023-12-20T06:18:58;8.10;89.50
57566;DHT22;63999;43.882;-0.310;2023-12-20T06:21:24;8.10;89.40
57566;DHT22;63999;43.882;-0.310;2023-12-20T06:23:49;8.10;89.30
57566;DHT22;63999;43.882;-0.310;2023-12-20T06:26:15;8.10;89.50
57566;DHT22;63999;43.882;-0.310;2023-12-20T06:28:41;8.10;89.50
57566;DHT22;63999;43.882;-0.310;2023-12-20T06:31:07;8.10;89.60
57566;DHT22;63999;43.882;-0.310;2023-12-20T06:33:32;8.10;89.40
57566;DHT22;63999;43.882;-0.310;2023-12-20T06:35:58;8.10;89.40
57566;DHT22;63999;43.882;-0.310;2023-12-20T06:38:24;8.10;89.40
57566;DHT22;63999;43.882;-0.310;2023-12-20T06:40:49;8.10;89.40
57566;DHT22;63999;43.882;-0.310;2023-12-20T06:43:15;8.10;89.30
57566;DHT22;63999;43.882;-0.310;2023-12-20T06:45:41;8.10;89.30
57566;DHT22;63999;43.882;-0.310;2023-12-20T06:48:07;8.10;89.50
57566;DHT22;63999;43.882;-0.310;2023-12-20T06:50:33;8.10;89.60
57566;DHT22;63999;43.882;-0.310;2023-12-20T06:52:59;8.10;89.30
57566;DHT22;63999;43.882;-0.310;2023-12-20T06:55:24;8.10;89.30
57566;DHT22;63999;43.882;-0.310;2023-12-20T06:57:50;8.10;89.30
57566;DHT22;63999;43.882;-0.310;2023-12-20T07:00:16;8.10;89.40
57566;DHT22;63999;43.882;-0.310;2023-12-20T07:02:44;8.10;89.30
57566;DHT22;63999;43.882;-0.310;2023-12-20T07:05:09;8.10;89.40
57566;DHT22;63999;43.882;-0.310;2023-12-20T07:07:35;8.10;89.40
57566;DHT22;63999;43.882;-0.310;2023-12-20T07:10:01;8.10;89.40
57566;DHT22;63999;43.882;-0.310;2023-12-20T07:12:27;8.10;89.30
57566;DHT22;63999;43.882;-0.310;2023-12-20T07:14:52;8.10;89.40
57566;DHT22;63999;43.882;-0.310;2023-12-20T07:17:18;8.10;89.50
57566;DHT22;63999;43.882;-0.310;2023-12-20T07:19:44;8.10;89.50
57566;DHT22;63999;43.882;-0.310;2023-12-20T07:22:09;8.10;89.40
57566;DHT22;63999;43.882;-0.310;2023-12-20T07:24:35;8.10;89.50
57566;DHT22;63999;43.882;-0.310;2023-12-20T07:27:01;8.20;89.50
57566;DHT22;63999;43.882;-0.310;2023-12-20T07:29:27;8.10;89.50
57566;DHT22;63999;43.882;-0.310;2023-12-20T07:31:53;8.10;89.50
57566;DHT22;63999;43.882;-0.310;2023-12-20T07:34:22;8.10;89.40
57566;DHT22;63999;43.882;-0.310;2023-12-20T07:36:48;8.10;89.50
57566;DHT22;63999;43.882;-0.310;2023-12-20T07:39:14;8.10;89.60
57566;DHT22;63999;43.882;-0.310;2023-12-20T07:41:40;8.10;89.80
57566;DHT22;63999;43.882;-0.310;2023-12-20T07:44:07;8.20;89.70
57566;DHT22;63999;43.882;-0.310;2023-12-20T07:46:33;8.20;89.80
57566;DHT22;63999;43.882;-0.310;2023-12-20T07:48:58;8.20;89.80
57566;DHT22;63999;43.882;-0.310;2023-12-20T07:51:24;8.20;90.20
57566;DHT22;63999;43.882;-0.310;2023-12-20T07:53:51;8.20;89.80
57566;DHT22;63999;43.882;-0.310;2023-12-20T07:56:18;8.20;89.90
57566;DHT22;63999;43.882;-0.310;2023-12-20T07:58:45;8.20;90.00
57566;DHT22;63999;43.882;-0.310;2023-12-20T08:01:11;8.20;89.90
57566;DHT22;63999;43.882;-0.310;2023-12-20T08:03:38;8.20;89.80
57566;DHT22;63999;43.882;-0.310;2023-12-20T08:06:04;8.20;89.80
57566;DHT22;63999;43.882;-0.310;2023-12-20T08:08:30;8.20;89.70
57566;DHT22;63999;43.882;-0.310;2023-12-20T08:10:56;8.20;89.60
57566;DHT22;63999;43.882;-0.310;2023-12-20T08:13:24;8.20;89.70
57566;DHT22;63999;43.882;-0.310;2023-12-20T08:15:52;8.20;89.70
57566;DHT22;63999;43.882;-0.310;2023-12-20T08:18:18;8.20;89.70
57566;DHT22;63999;43.882;-0.310;2023-12-20T08:20:44;8.10;89.70
57566;DHT22;63999;43.882;-0.310;2023-12-20T08:23:10;8.10;89.60
57566;DHT22;63999;43.882;-0.310;2023-12-20T08:25:35;8.20;89.70
57566;DHT22;63999;43.882;-0.310;2023-12-20T08:28:03;8.10;89.70
57566;DHT22;63999;43.882;-0.310;2023-12-20T08:30:29;8.10;89.60
57566;DHT22;63999;43.882;-0.310;2023-12-20T08:32:57;8.10;89.60
57566;DHT22;63999;43.882;-0.310;2023-12-20T08:35:23;8.10;89.60
57566;DHT22;63999;43.882;-0.310;2023-12-20T08:37:49;8.10;89.70
57566;DHT22;63999;43.882;-0.310;2023-12-20T08:40:15;8.10;89.60
57566;DHT22;63999;43.882;-0.310;2023-12-20T08:42:41;8.10;89.70
57566;DHT22;63999;43.882;-0.310;2023-12-20T08:45:06;8.20;89.60
57566;DHT22;63999;43.882;-0.310;2023-12-20T08:47:32;8.10;89.60
57566;DHT22;63999;43.882;-0.310;2023-12-20T08:49:58;8.10;89.70
57566;DHT22;63999;43.882;-0.310;2023-12-20T08:52:26;8.10;89.70
57566;DHT22;63999;43.882;-0.310;2023-12-20T08:54:55;8.10;89.60
57566;DHT22;63999;43.882;-0.310;2023-12-20T08:57:21;8.10;89.50
57566;DHT22;63999;43.882;-0.310;2023-12-20T08:59:49;8.10;89.50
57566;DHT22;63999;43.882;-0.310;2023-12-20T09:02:15;8.10;89.60
57566;DHT22;63999;43.882;-0.310;2023-12-20T09:04:41;8.10;89.50
57566;DHT22;63999;43.882;-0.310;2023-12-20T09:07:07;8.10;89.60
57566;DHT22;63999;43.882;-0.310;2023-12-20T09:09:33;8.10;89.60
57566;DHT22;63999;43.882;-0.310;2023-12-20T09:11:59;8.10;89.60
57566;DHT22;63999;43.882;-0.310;2023-12-20T09:14:24;8.10;89.60
57566;DHT22;63999;43.882;-0.310;2023-12-20T09:16:50;8.20;89.60
57566;DHT22;63999;43.882;-0.310;2023-12-20T09:19:17;8.20;89.70
57566;DHT22;63999;43.882;-0.310;2023-12-20T09:21:43;8.20;89.60
57566;DHT22;63999;43.882;-0.310;2023-12-20T09:24:09;8.20;89.70
57566;DHT22;63999;43.882;-0.310;2023-12-20T09:26:35;8.20;89.70
57566;DHT22;63999;43.882;-0.310;2023-12-20T09:29:01;8.20;89.80
57566;DHT22;63999;43.882;-0.310;2023-12-20T09:31:26;8.20;89.70
57566;DHT22;63999;43.882;-0.310;2023-12-20T09:33:52;8.20;89.60
57566;DHT22;63999;43.882;-0.310;2023-12-20T09:36:18;8.20;89.50
57566;DHT22;63999;43.882;-0.310;2023-12-20T09:38:44;8.20;89.60
57566;DHT22;63999;43.882;-0.310;2023-12-20T09:41:10;8.20;89.60
57566;DHT22;63999;43.882;-0.310;2023-12-20T09:43:37;8.20;89.60
57566;DHT22;63999;43.882;-0.310;2023-12-20T09:46:05;8.20;89.70
57566;DHT22;63999;43.882;-0.310;2023-12-20T09:48:33;8.20;89.60
57566;DHT22;63999;43.882;-0.310;2023-12-20T09:50:59;8.30;89.70
57566;DHT22;63999;43.882;-0.310;2023-12-20T09:53:25;8.20;89.60
57566;DHT22;63999;43.882;-0.310;2023-12-20T09:55:58;8.30;89.70
57566;DHT22;63999;43.882;-0.310;2023-12-20T09:58:25;8.30;89.60
57566;DHT22;63999;43.882;-0.310;2023-12-20T10:00:51;8.30;89.70
57566;DHT22;63999;43.882;-0.310;2023-12-20T10:03:24;8.30;89.70
57566;DHT22;63999;43.882;-0.310;2023-12-20T10:05:54;8.30;89.50
57566;DHT22;63999;43.882;-0.310;2023-12-20T10:08:21;8.30;89.80
57566;DHT22;63999;43.882;-0.310;2023-12-20T10:10:48;8.30;89.60
57566;DHT22;63999;43.882;-0.310;2023-12-20T10:13:13;8.30;89.70
57566;DHT22;63999;43.882;-0.310;2023-12-20T10:15:40;8.30;89.70
57566;DHT22;63999;43.882;-0.310;2023-12-20T10:18:06;8.40;89.60
57566;DHT22;63999;43.882;-0.310;2023-12-20T10:20:32;8.40;89.60
57566;DHT22;63999;43.882;-0.310;2023-12-20T10:22:59;8.40;89.60
57566;DHT22;63999;43.882;-0.310;2023-12-20T10:25:26;8.40;89.80
57566;DHT22;63999;43.882;-0.310;2023-12-20T10:28:12;8.50;90.00
57566;DHT22;63999;43.882;-0.310;2023-12-20T10:30:40;8.50;90.10
57566;DHT22;63999;43.882;-0.310;2023-12-20T10:33:07;8.50;90.20
57566;DHT22;63999;43.882;-0.310;2023-12-20T10:35:34;8.60;90.20
57566;DHT22;63999;43.882;-0.310;2023-12-20T10:38:05;8.60;90.10
57566;DHT22;63999;43.882;-0.310;2023-12-20T10:40:36;8.60;90.00
57566;DHT22;63999;43.882;-0.310;2023-12-20T10:43:05;8.60;90.00
57566;DHT22;63999;43.882;-0.310;2023-12-20T10:45:31;8.60;90.10
57566;DHT22;63999;43.882;-0.310;2023-12-20T10:47:58;8.60;90.30
57566;DHT22;63999;43.882;-0.310;2023-12-20T10:50:27;8.60;90.30
57566;DHT22;63999;43.882;-0.310;2023-12-20T10:52:54;8.60;90.60
57566;DHT22;63999;43.882;-0.310;2023-12-20T10:55:22;8.70;90.50
57566;DHT22;63999;43.882;-0.310;2023-12-20T10:58:06;8.80;90.60
57566;DHT22;63999;43.882;-0.310;2023-12-20T11:00:32;8.80;90.70
57566;DHT22;63999;43.882;-0.310;2023-12-20T11:03:01;8.80;90.80
57566;DHT22;63999;43.882;-0.310;2023-12-20T11:05:48;8.80;90.70
57566;DHT22;63999;43.882;-0.310;2023-12-20T11:14:03;8.80;90.50
57566;DHT22;63999;43.882;-0.310;2023-12-20T11:16:32;8.90;90.60
57566;DHT22;63999;43.882;-0.310;2023-12-20T11:18:58;8.90;90.50
57566;DHT22;63999;43.882;-0.310;2023-12-20T11:21:30;8.90;90.60
57566;DHT22;63999;43.882;-0.310;2023-12-20T11:23:55;8.90;90.70
57566;DHT22;63999;43.882;-0.310;2023-12-20T11:26:28;8.90;90.60
57566;DHT22;63999;43.882;-0.310;2023-12-20T11:29:17;8.90;90.60
57566;DHT22;63999;43.882;-0.310;2023-12-20T11:31:40;8.90;90.40
57566;DHT22;63999;43.882;-0.310;2023-12-20T11:34:18;8.90;90.40
57566;DHT22;63999;43.882;-0.310;2023-12-20T11:36:43;8.90;90.20
57566;DHT22;63999;43.882;-0.310;2023-12-20T11:39:10;8.90;90.60
57566;DHT22;63999;43.882;-0.310;2023-12-20T11:41:36;8.90;90.60
57566;DHT22;63999;43.882;-0.310;2023-12-20T11:44:04;8.90;90.80
57566;DHT22;63999;43.882;-0.310;2023-12-20T11:46:31;8.90;90.60
57566;DHT22;63999;43.882;-0.310;2023-12-20T11:48:57;9.00;90.90
57566;DHT22;63999;43.882;-0.310;2023-12-20T11:51:23;9.00;90.70
57566;DHT22;63999;43.882;-0.310;2023-12-20T11:53:52;9.00;90.80
57566;DHT22;63999;43.882;-0.310;2023-12-20T11:56:18;9.00;90.70
57566;DHT22;63999;43.882;-0.310;2023-12-20T11:58:44;9.00;90.60
57566;DHT22;63999;43.882;-0.310;2023-12-20T12:01:10;9.00;90.60
57566;DHT22;63999;43.882;-0.310;2023-12-20T12:03:36;9.00;90.70
57566;DHT22;63999;43.882;-0.310;2023-12-20T12:06:02;9.00;90.70
57566;DHT22;63999;43.882;-0.310;2023-12-20T12:08:30;9.00;91.00
57566;DHT22;63999;43.882;-0.310;2023-12-20T12:10:56;9.00;90.80
57566;DHT22;63999;43.882;-0.310;2023-12-20T12:13:22;9.00;90.70
57566;DHT22;63999;43.882;-0.310;2023-12-20T12:15:48;9.00;90.70
57566;DHT22;63999;43.882;-0.310;2023-12-20T12:18:16;9.10;90.80
57566;DHT22;63999;43.882;-0.310;2023-12-20T12:20:42;9.10;90.70
57566;DHT22;63999;43.882;-0.310;2023-12-20T12:23:08;9.00;90.60
57566;DHT22;63999;43.882;-0.310;2023-12-20T12:25:37;9.00;90.60
57566;DHT22;63999;43.882;-0.310;2023-12-20T12:28:03;9.10;90.50
57566;DHT22;63999;43.882;-0.310;2023-12-20T12:30:29;9.10;90.50
57566;DHT22;63999;43.882;-0.310;2023-12-20T12:32:57;9.00;90.50
57566;DHT22;63999;43.882;-0.310;2023-12-20T12:35:26;9.10;90.60
57566;DHT22;63999;43.882;-0.310;2023-12-20T12:37:52;9.20;90.90
57566;DHT22;63999;43.882;-0.310;2023-12-20T12:40:17;9.20;90.80
57566;DHT22;63999;43.882;-0.310;2023-12-20T12:42:45;9.20;90.70
57566;DHT22;63999;43.882;-0.310;2023-12-20T12:45:11;9.20;90.80
57566;DHT22;63999;43.882;-0.310;2023-12-20T12:47:38;9.20;91.00
57566;DHT22;63999;43.882;-0.310;2023-12-20T12:50:04;9.20;90.90
57566;DHT22;63999;43.882;-0.310;2023-12-20T12:52:31;9.20;90.70
57566;DHT22;63999;43.882;-0.310;2023-12-20T12:54:57;9.20;90.60
57566;DHT22;63999;43.882;-0.310;2023-12-20T12:57:23;9.20;90.70
57566;DHT22;63999;43.882;-0.310;2023-12-20T12:59:49;9.20;90.80
57566;DHT22;63999;43.882;-0.310;2023-12-20T13:02:15;9.20;90.80
57566;DHT22;63999;43.882;-0.310;2023-12-20T13:04:41;9.20;90.60
57566;DHT22;63999;43.882;-0.310;2023-12-20T13:07:09;9.20;90.70
57566;DHT22;63999;43.882;-0.310;2023-12-20T13:09:38;9.20;90.60
57566;DHT22;63999;43.882;-0.310;2023-12-20T13:12:05;9.20;90.50
57566;DHT22;63999;43.882;-0.310;2023-12-20T13:14:33;9.20;90.70
57566;DHT22;63999;43.882;-0.310;2023-12-20T13:17:00;9.30;90.50
57566;DHT22;63999;43.882;-0.310;2023-12-20T13:19:26;9.30;90.60
57566;DHT22;63999;43.882;-0.310;2023-12-20T13:21:53;9.20;90.60
57566;DHT22;63999;43.882;-0.310;2023-12-20T13:24:19;9.20;90.50
57566;DHT22;63999;43.882;-0.310;2023-12-20T13:26:45;9.20;90.40
57566;DHT22;63999;43.882;-0.310;2023-12-20T13:29:10;9.20;90.50
57566;DHT22;63999;43.882;-0.310;2023-12-20T13:31:37;9.30;90.40
57566;DHT22;63999;43.882;-0.310;2023-12-20T13:34:04;9.30;90.40
57566;DHT22;63999;43.882;-0.310;2023-12-20T13:36:29;9.30;90.50
57566;DHT22;63999;43.882;-0.310;2023-12-20T13:38:55;9.20;90.40
57566;DHT22;63999;43.882;-0.310;2023-12-20T13:41:21;9.30;90.40
57566;DHT22;63999;43.882;-0.310;2023-12-20T13:43:47;9.30;90.40
57566;DHT22;63999;43.882;-0.310;2023-12-20T13:46:12;9.30;90.40
57566;DHT22;63999;43.882;-0.310;2023-12-20T13:48:39;9.30;90.40
57566;DHT22;63999;43.882;-0.310;2023-12-20T13:51:05;9.40;90.40
57566;DHT22;63999;43.882;-0.310;2023-12-20T13:53:32;9.40;90.50
57566;DHT22;63999;43.882;-0.310;2023-12-20T13:55:57;9.40;90.60
57566;DHT22;63999;43.882;-0.310;2023-12-20T13:58:25;9.40;90.50
57566;DHT22;63999;43.882;-0.310;2023-12-20T14:00:51;9.40;90.50
57566;DHT22;63999;43.882;-0.310;2023-12-20T14:03:17;9.40;90.50
57566;DHT22;63999;43.882;-0.310;2023-12-20T14:05:42;9.40;90.50
57566;DHT22;63999;43.882;-0.310;2023-12-20T14:08:08;9.40;90.50
57566;DHT22;63999;43.882;-0.310;2023-12-20T14:10:35;9.40;90.50
57566;DHT22;63999;43.882;-0.310;2023-12-20T14:13:01;9.40;90.60
57566;DHT22;63999;43.882;-0.310;2023-12-20T14:15:27;9.40;90.50
57566;DHT22;63999;43.882;-0.310;2023-12-20T14:17:53;9.40;90.40
57566;DHT22;63999;43.882;-0.310;2023-12-20T14:20:18;9.40;90.50
57566;DHT22;63999;43.882;-0.310;2023-12-20T14:22:44;9.40;90.30
57566;DHT22;63999;43.882;-0.310;2023-12-20T14:25:11;9.40;90.30
57566;DHT22;63999;43.882;-0.310;2023-12-20T14:27:38;9.40;90.30
57566;DHT22;63999;43.882;-0.310;2023-12-20T14:30:05;9.40;90.20
57566;DHT22;63999;43.882;-0.310;2023-12-20T14:32:31;9.40;90.30
57566;DHT22;63999;43.882;-0.310;2023-12-20T14:34:57;9.40;90.30
57566;DHT22;63999;43.882;-0.310;2023-12-20T14:37:23;9.40;90.10
57566;DHT22;63999;43.882;-0.310;2023-12-20T14:39:49;9.40;89.80
57566;DHT22;63999;43.882;-0.310;2023-12-20T14:42:15;9.40;89.80
57566;DHT22;63999;43.882;-0.310;2023-12-20T14:44:40;9.40;89.70
57566;DHT22;63999;43.882;-0.310;2023-12-20T14:47:07;9.40;89.80
57566;DHT22;63999;43.882;-0.310;2023-12-20T14:49:32;9.40;89.70
57566;DHT22;63999;43.882;-0.310;2023-12-20T14:51:59;9.40;89.80
57566;DHT22;63999;43.882;-0.310;2023-12-20T14:54:25;9.40;89.90
57566;DHT22;63999;43.882;-0.310;2023-12-20T14:56:51;9.40;90.00
57566;DHT22;63999;43.882;-0.310;2023-12-20T14:59:16;9.50;90.10
57566;DHT22;63999;43.882;-0.310;2023-12-20T15:01:43;9.50;90.10
57566;DHT22;63999;43.882;-0.310;2023-12-20T15:04:09;9.50;90.10
57566;DHT22;63999;43.882;-0.310;2023-12-20T15:06:36;9.50;90.20
57566;DHT22;63999;43.882;-0.310;2023-12-20T15:09:02;9.50;90.20
57566;DHT22;63999;43.882;-0.310;2023-12-20T15:11:33;9.50;90.30
57566;DHT22;63999;43.882;-0.310;2023-12-20T15:14:00;9.50;90.30
57566;DHT22;63999;43.882;-0.310;2023-12-20T15:16:26;9.60;90.30
57566;DHT22;63999;43.882;-0.310;2023-12-20T15:18:52;9.60;90.30
57566;DHT22;63999;43.882;-0.310;2023-12-20T15:21:20;9.60;90.20
57566;DHT22;63999;43.882;-0.310;2023-12-20T15:23:55;9.60;90.30
57566;DHT22;63999;43.882;-0.310;2023-12-20T15:26:37;9.60;90.50
57566;DHT22;63999;43.882;-0.310;2023-12-20T15:29:03;9.60;90.50
57566;DHT22;63999;43.882;-0.310;2023-12-20T15:31:30;9.60;90.30